sensor_id;sensor_type;location;lat;lon;timestamp;P1;durP1;ratioP1;P2;durP2;ratioP2
28988;SDS011;16089;59.952;10.818;2023-06-14T00:01:08;7.10;;;4.00;;
28988;SDS011;16089;59.952;10.818;2023-06-14T00:03:34;8.48;;;3.97;;
28988;SDS011;16089;59.952;10.818;2023-06-14T00:06:01;9.13;;;3.80;;
28988;SDS011;16089;59.952;10.818;2023-06-14T00:08:27;9.57;;;3.90;;
28988;SDS011;16089;59.952;10.818;2023-06-14T00:10:53;7.25;;;4.10;;
28988;SDS011;16089;59.952;10.818;2023-06-14T00:13:21;9.25;;;4.20;;
28988;SDS011;16089;59.952;10.818;2023-06-14T00:15:48;10.93;;;4.30;;
28988;SDS011;16089;59.952;10.818;2023-06-14T00:18:14;10.02;;;4.22;;
28988;SDS011;16089;59.952;10.818;2023-06-14T00:20:41;7.80;;;3.72;;
28988;SDS011;16089;59.952;10.818;2023-06-14T00:23:08;9.10;;;4.10;;
28988;SDS011;16089;59.952;10.818;2023-06-14T00:25:34;8.85;;;4.00;;
28988;SDS011;16089;59.952;10.818;2023-06-14T00:28:01;10.20;;;4.55;;
28988;SDS011;16089;59.952;10.818;2023-06-14T00:30:28;8.38;;;3.75;;
28988;SDS011;16089;59.952;10.818;2023-06-14T00:32:55;8.45;;;3.70;;
28988;SDS011;16089;59.952;10.818;2023-06-14T00:35:22;6.57;;;3.42;;
28988;SDS011;16089;59.952;10.818;2023-06-14T00:37:48;9.77;;;4.53;;
28988;SDS011;16089;59.952;10.818;2023-06-14T00:40:14;7.88;;;4.45;;
28988;SDS011;16089;59.952;10.818;2023-06-14T00:42:41;7.55;;;3.92;;
28988;SDS011;16089;59.952;10.818;2023-06-14T00:45:07;7.85;;;3.70;;
28988;SDS011;16089;59.952;10.818;2023-06-14T00:47:35;8.13;;;4.07;;
28988;SDS011;16089;59.952;10.818;2023-06-14T00:50:03;11.40;;;4.13;;
28988;SDS011;16089;59.952;10.818;2023-06-14T00:52:32;10.48;;;4.07;;
28988;SDS011;16089;59.952;10.818;2023-06-14T00:54:59;7.93;;;4.07;;
28988;SDS011;16089;59.952;10.818;2023-06-14T00:57:26;11.75;;;4.30;;
28988;SDS011;16089;59.952;10.818;2023-06-14T00:59:52;9.63;;;4.43;;
28988;SDS011;16089;59.952;10.818;2023-06-14T01:02:19;9.35;;;3.97;;
28988;SDS011;16089;59.952;10.818;2023-06-14T01:04:47;7.95;;;4.03;;
28988;SDS011;16089;59.952;10.818;2023-06-14T01:07:16;11.00;;;4.20;;
28988;SDS011;16089;59.952;10.818;2023-06-14T01:09:47;7.97;;;4.15;;
28988;SDS011;16089;59.952;10.818;2023-06-14T01:12:21;13.15;;;4.82;;
28988;SDS011;16089;59.952;10.818;2023-06-14T01:14:50;8.30;;;4.40;;
28988;SDS011;16089;59.952;10.818;2023-06-14T01:17:17;12.13;;;4.60;;
28988;SDS011;16089;59.952;10.818;2023-06-14T01:19:44;9.80;;;4.40;;
28988;SDS011;16089;59.952;10.818;2023-06-14T01:22:12;9.10;;;4.50;;
28988;SDS011;16089;59.952;10.818;2023-06-14T01:24:39;7.65;;;4.10;;
28988;SDS011;16089;59.952;10.818;2023-06-14T01:27:09;8.05;;;4.25;;
28988;SDS011;16089;59.952;10.818;2023-06-14T01:29:36;8.85;;;4.60;;
28988;SDS011;16089;59.952;10.818;2023-06-14T01:32:04;7.10;;;4.18;;
28988;SDS011;16089;59.952;10.818;2023-06-14T01:34:30;12.38;;;4.60;;
28988;SDS011;16089;59.952;10.818;2023-06-14T01:36:56;9.90;;;4.75;;
28988;SDS011;16089;59.952;10.818;2023-06-14T01:39:23;9.07;;;4.47;;
28988;SDS011;16089;59.952;10.818;2023-06-14T01:41:51;10.20;;;5.15;;
28988;SDS011;16089;59.952;10.818;2023-06-14T01:44:18;8.32;;;4.40;;
28988;SDS011;16089;59.952;10.818;2023-06-14T01:46:45;9.75;;;4.53;;
28988;SDS011;16089;59.952;10.818;2023-06-14T01:49:11;19.40;;;5.15;;
28988;SDS011;16089;59.952;10.818;2023-06-14T01:51:37;10.75;;;4.90;;
28988;SDS011;16089;59.952;10.818;2023-06-14T01:54:04;9.77;;;4.90;;
28988;SDS011;16089;59.952;10.818;2023-06-14T01:56:30;9.55;;;4.50;;
28988;SDS011;16089;59.952;10.818;2023-06-14T01:58:58;9.73;;;4.90;;
28988;SDS011;16089;59.952;10.818;2023-06-14T02:01:25;7.90;;;4.40;;
28988;SDS011;16089;59.952;10.818;2023-06-14T02:03:51;8.35;;;4.75;;
28988;SDS011;16089;59.952;10.818;2023-06-14T02:06:18;10.13;;;4.80;;
28988;SDS011;16089;59.952;10.818;2023-06-14T02:08:45;9.90;;;5.03;;
28988;SDS011;16089;59.952;10.818;2023-06-14T02:11:11;10.95;;;4.95;;
28988;SDS011;16089;59.952;10.818;2023-06-14T02:13:37;9.90;;;4.43;;
28988;SDS011;16089;59.952;10.818;2023-06-14T02:16:05;10.75;;;4.85;;
28988;SDS011;16089;59.952;10.818;2023-06-14T02:18:32;9.50;;;5.10;;
28988;SDS011;16089;59.952;10.818;2023-06-14T02:20:58;12.02;;;5.22;;
28988;SDS011;16089;59.952;10.818;2023-06-14T02:23:24;10.02;;;5.30;;
28988;SDS011;16089;59.952;10.818;2023-06-14T02:25:51;10.48;;;5.28;;
28988;SDS011;16089;59.952;10.818;2023-06-14T02:28:17;11.25;;;5.22;;
28988;SDS011;16089;59.952;10.818;2023-06-14T02:30:43;12.93;;;5.07;;
28988;SDS011;16089;59.952;10.818;2023-06-14T02:33:11;9.60;;;5.05;;
28988;SDS011;16089;59.952;10.818;2023-06-14T02:35:38;9.13;;;5.28;;
28988;SDS011;16089;59.952;10.818;2023-06-14T02:38:04;11.52;;;5.22;;
28988;SDS011;16089;59.952;10.818;2023-06-14T02:40:30;9.13;;;5.05;;
28988;SDS011;16089;59.952;10.818;2023-06-14T02:42:57;7.47;;;4.80;;
28988;SDS011;16089;59.952;10.818;2023-06-14T02:45:23;10.20;;;4.97;;
28988;SDS011;16089;59.952;10.818;2023-06-14T02:47:50;10.32;;;5.40;;
28988;SDS011;16089;59.952;10.818;2023-06-14T02:50:18;14.07;;;5.75;;
28988;SDS011;16089;59.952;10.818;2023-06-14T02:52:46;10.90;;;5.63;;
28988;SDS011;16089;59.952;10.818;2023-06-14T02:55:12;8.63;;;4.90;;
28988;SDS011;16089;59.952;10.818;2023-06-14T02:57:39;9.10;;;5.07;;
28988;SDS011;16089;59.952;10.818;2023-06-14T03:00:06;12.30;;;5.38;;
28988;SDS011;16089;59.952;10.818;2023-06-14T03:02:34;10.77;;;5.30;;
28988;SDS011;16089;59.952;10.818;2023-06-14T03:05:01;8.63;;;5.10;;
28988;SDS011;16089;59.952;10.818;2023-06-14T03:07:29;8.65;;;5.20;;
28988;SDS011;16089;59.952;10.818;2023-06-14T03:09:56;8.98;;;5.30;;
28988;SDS011;16089;59.952;10.818;2023-06-14T03:12:22;9.98;;;5.10;;
28988;SDS011;16089;59.952;10.818;2023-06-14T03:14:48;12.32;;;5.15;;
28988;SDS011;16089;59.952;10.818;2023-06-14T03:17:15;10.73;;;5.00;;
28988;SDS011;16089;59.952;10.818;2023-06-14T03:19:42;9.70;;;4.75;;
28988;SDS011;16089;59.952;10.818;2023-06-14T03:22:08;10.38;;;5.30;;
28988;SDS011;16089;59.952;10.818;2023-06-14T03:24:38;7.97;;;5.10;;
28988;SDS011;16089;59.952;10.818;2023-06-14T03:27:05;9.27;;;4.90;;
28988;SDS011;16089;59.952;10.818;2023-06-14T03:29:31;9.23;;;5.15;;
28988;SDS011;16089;59.952;10.818;2023-06-14T03:31:58;8.35;;;5.00;;
28988;SDS011;16089;59.952;10.818;2023-06-14T03:34:24;13.88;;;4.72;;
28988;SDS011;16089;59.952;10.818;2023-06-14T03:36:51;10.23;;;5.03;;
28988;SDS011;16089;59.952;10.818;2023-06-14T03:39:17;9.63;;;4.63;;
28988;SDS011;16089;59.952;10.818;2023-06-14T03:41:45;9.85;;;4.93;;
28988;SDS011;16089;59.952;10.818;2023-06-14T03:44:13;9.15;;;4.53;;
28988;SDS011;16089;59.952;10.818;2023-06-14T03:46:40;10.63;;;5.65;;
28988;SDS011;16089;59.952;10.818;2023-06-14T03:49:06;7.82;;;4.82;;
28988;SDS011;16089;59.952;10.818;2023-06-14T03:51:33;8.48;;;4.78;;
28988;SDS011;16089;59.952;10.818;2023-06-14T03:54:00;6.90;;;4.18;;
28988;SDS011;16089;59.952;10.818;2023-06-14T03:56:27;10.38;;;5.18;;
28988;SDS011;16089;59.952;10.818;2023-06-14T03:58:54;11.20;;;5.18;;
28988;SDS011;16089;59.952;10.818;2023-06-14T04:01:21;9.85;;;4.90;;
28988;SDS011;16089;59.952;10.818;2023-06-14T04:03:54;8.02;;;4.65;;
28988;SDS011;16089;59.952;10.818;2023-06-14T04:06:20;12.48;;;4.68;;
28988;SDS011;16089;59.952;10.818;2023-06-14T04:08:47;8.23;;;4.38;;
28988;SDS011;16089;59.952;10.818;2023-06-14T04:11:14;10.38;;;4.85;;
28988;SDS011;16089;59.952;10.818;2023-06-14T04:13:40;10.55;;;4.60;;
28988;SDS011;16089;59.952;10.818;2023-06-14T04:16:08;11.25;;;5.13;;
28988;SDS011;16089;59.952;10.818;2023-06-14T04:18:35;8.93;;;4.90;;
28988;SDS011;16089;59.952;10.818;2023-06-14T04:21:01;14.80;;;4.80;;
28988;SDS011;16089;59.952;10.818;2023-06-14T04:23:27;9.65;;;4.65;;
28988;SDS011;16089;59.952;10.818;2023-06-14T04:25:53;8.68;;;4.82;;
28988;SDS011;16089;59.952;10.818;2023-06-14T04:28:26;9.20;;;4.78;;
28988;SDS011;16089;59.952;10.818;2023-06-14T04:30:53;9.85;;;4.75;;
28988;SDS011;16089;59.952;10.818;2023-06-14T04:33:21;8.95;;;4.47;;
28988;SDS011;16089;59.952;10.818;2023-06-14T04:35:47;10.88;;;4.95;;
28988;SDS011;16089;59.952;10.818;2023-06-14T04:38:14;9.60;;;4.57;;
28988;SDS011;16089;59.952;10.818;2023-06-14T04:40:41;11.05;;;5.03;;
28988;SDS011;16089;59.952;10.818;2023-06-14T04:43:09;9.23;;;4.82;;
28988;SDS011;16089;59.952;10.818;2023-06-14T04:45:37;9.23;;;4.70;;
28988;SDS011;16089;59.952;10.818;2023-06-14T04:48:05;12.13;;;4.03;;
28988;SDS011;16089;59.952;10.818;2023-06-14T04:50:33;16.73;;;4.80;;
28988;SDS011;16089;59.952;10.818;2023-06-14T04:53:00;9.48;;;4.60;;
28988;SDS011;16089;59.952;10.818;2023-06-14T04:55:26;7.72;;;4.53;;
28988;SDS011;16089;59.952;10.818;2023-06-14T04:57:52;14.32;;;4.80;;
28988;SDS011;16089;59.952;10.818;2023-06-14T05:00:19;10.05;;;6.30;;
28988;SDS011;16089;59.952;10.818;2023-06-14T05:02:46;14.55;;;6.28;;
28988;SDS011;16089;59.952;10.818;2023-06-14T05:05:14;8.65;;;5.43;;
28988;SDS011;16089;59.952;10.818;2023-06-14T05:07:42;11.00;;;5.20;;
28988;SDS011;16089;59.952;10.818;2023-06-14T05:10:08;14.10;;;5.50;;
28988;SDS011;16089;59.952;10.818;2023-06-14T05:12:35;10.57;;;5.03;;
28988;SDS011;16089;59.952;10.818;2023-06-14T05:15:01;12.13;;;5.47;;
28988;SDS011;16089;59.952;10.818;2023-06-14T05:17:28;13.70;;;5.07;;
28988;SDS011;16089;59.952;10.818;2023-06-14T05:19:54;12.73;;;5.38;;
28988;SDS011;16089;59.952;10.818;2023-06-14T05:22:20;13.00;;;5.60;;
28988;SDS011;16089;59.952;10.818;2023-06-14T05:24:48;13.98;;;5.72;;
28988;SDS011;16089;59.952;10.818;2023-06-14T05:27:16;15.27;;;5.60;;
28988;SDS011;16089;59.952;10.818;2023-06-14T05:29:42;12.38;;;5.50;;
28988;SDS011;16089;59.952;10.818;2023-06-14T05:32:08;18.25;;;6.05;;
28988;SDS011;16089;59.952;10.818;2023-06-14T05:34:35;14.27;;;5.40;;
28988;SDS011;16089;59.952;10.818;2023-06-14T05:37:01;11.45;;;4.82;;
28988;SDS011;16089;59.952;10.818;2023-06-14T05:39:28;11.98;;;5.60;;
28988;SDS011;16089;59.952;10.818;2023-06-14T05:41:56;13.43;;;5.15;;
28988;SDS011;16089;59.952;10.818;2023-06-14T05:44:23;16.55;;;5.30;;
28988;SDS011;16089;59.952;10.818;2023-06-14T05:46:49;16.05;;;5.07;;
28988;SDS011;16089;59.952;10.818;2023-06-14T05:49:16;17.15;;;5.50;;
28988;SDS011;16089;59.952;10.818;2023-06-14T05:51:42;17.23;;;8.60;;
28988;SDS011;16089;59.952;10.818;2023-06-14T05:54:09;13.13;;;5.95;;
28988;SDS011;16089;59.952;10.818;2023-06-14T05:56:35;17.08;;;5.93;;
28988;SDS011;16089;59.952;10.818;2023-06-14T05:59:03;15.23;;;5.30;;
28988;SDS011;16089;59.952;10.818;2023-06-14T06:01:29;20.85;;;5.85;;
28988;SDS011;16089;59.952;10.818;2023-06-14T06:03:55;14.88;;;5.40;;
28988;SDS011;16089;59.952;10.818;2023-06-14T06:06:22;12.95;;;5.45;;
28988;SDS011;16089;59.952;10.818;2023-06-14T06:08:48;18.20;;;5.13;;
28988;SDS011;16089;59.952;10.818;2023-06-14T06:11:15;19.73;;;5.78;;
28988;SDS011;16089;59.952;10.818;2023-06-14T06:13:41;13.48;;;5.75;;
28988;SDS011;16089;59.952;10.818;2023-06-14T06:16:08;11.57;;;5.18;;
28988;SDS011;16089;59.952;10.818;2023-06-14T06:18:35;8.88;;;4.90;;
28988;SDS011;16089;59.952;10.818;2023-06-14T06:21:01;17.75;;;5.38;;
28988;SDS011;16089;59.952;10.818;2023-06-14T06:23:28;14.88;;;5.53;;
28988;SDS011;16089;59.952;10.818;2023-06-14T06:25:54;13.45;;;5.45;;
28988;SDS011;16089;59.952;10.818;2023-06-14T06:28:21;19.65;;;5.90;;
28988;SDS011;16089;59.952;10.818;2023-06-14T06:30:47;22.20;;;6.28;;
28988;SDS011;16089;59.952;10.818;2023-06-14T06:33:15;14.25;;;5.90;;
28988;SDS011;16089;59.952;10.818;2023-06-14T06:35:41;14.48;;;5.47;;
28988;SDS011;16089;59.952;10.818;2023-06-14T06:38:08;16.33;;;5.65;;
28988;SDS011;16089;59.952;10.818;2023-06-14T06:40:35;14.63;;;5.97;;
28988;SDS011;16089;59.952;10.818;2023-06-14T06:43:01;13.48;;;6.90;;
28988;SDS011;16089;59.952;10.818;2023-06-14T06:45:28;17.25;;;6.15;;
28988;SDS011;16089;59.952;10.818;2023-06-14T06:47:54;19.13;;;6.43;;
28988;SDS011;16089;59.952;10.818;2023-06-14T06:50:22;16.58;;;5.45;;
28988;SDS011;16089;59.952;10.818;2023-06-14T06:52:50;13.57;;;6.30;;
28988;SDS011;16089;59.952;10.818;2023-06-14T06:55:16;15.07;;;5.80;;
28988;SDS011;16089;59.952;10.818;2023-06-14T06:57:43;14.35;;;6.47;;
28988;SDS011;16089;59.952;10.818;2023-06-14T07:00:10;18.73;;;5.50;;
28988;SDS011;16089;59.952;10.818;2023-06-14T07:02:37;14.60;;;5.95;;
28988;SDS011;16089;59.952;10.818;2023-06-14T07:05:04;15.35;;;5.55;;
28988;SDS011;16089;59.952;10.818;2023-06-14T07:07:32;14.52;;;6.20;;
28988;SDS011;16089;59.952;10.818;2023-06-14T07:09:58;12.32;;;5.68;;
28988;SDS011;16089;59.952;10.818;2023-06-14T07:12:25;14.25;;;5.32;;
28988;SDS011;16089;59.952;10.818;2023-06-14T07:14:51;12.32;;;5.65;;
28988;SDS011;16089;59.952;10.818;2023-06-14T07:17:18;12.18;;;4.93;;
28988;SDS011;16089;59.952;10.818;2023-06-14T07:19:44;11.35;;;5.45;;
28988;SDS011;16089;59.952;10.818;2023-06-14T07:22:10;11.82;;;5.75;;
28988;SDS011;16089;59.952;10.818;2023-06-14T07:24:38;14.00;;;5.20;;
28988;SDS011;16089;59.952;10.818;2023-06-14T07:27:05;15.23;;;5.63;;
28988;SDS011;16089;59.952;10.818;2023-06-14T07:29:32;12.60;;;5.00;;
28988;SDS011;16089;59.952;10.818;2023-06-14T07:31:59;11.82;;;5.00;;
28988;SDS011;16089;59.952;10.818;2023-06-14T07:34:25;13.77;;;5.13;;
28988;SDS011;16089;59.952;10.818;2023-06-14T07:36:52;11.15;;;4.95;;
28988;SDS011;16089;59.952;10.818;2023-06-14T07:39:19;10.40;;;4.88;;
28988;SDS011;16089;59.952;10.818;2023-06-14T07:41:47;13.75;;;4.80;;
28988;SDS011;16089;59.952;10.818;2023-06-14T07:44:13;12.52;;;5.15;;
28988;SDS011;16089;59.952;10.818;2023-06-14T07:46:40;16.38;;;4.72;;
28988;SDS011;16089;59.952;10.818;2023-06-14T07:49:07;9.00;;;4.43;;
28988;SDS011;16089;59.952;10.818;2023-06-14T07:51:33;12.48;;;4.97;;
28988;SDS011;16089;59.952;10.818;2023-06-14T07:54:00;10.23;;;4.55;;
28988;SDS011;16089;59.952;10.818;2023-06-14T07:56:27;13.82;;;4.00;;
28988;SDS011;16089;59.952;10.818;2023-06-14T07:58:54;6.20;;;3.72;;
28988;SDS011;16089;59.952;10.818;2023-06-14T08:01:21;11.10;;;4.20;;
28988;SDS011;16089;59.952;10.818;2023-06-14T08:03:50;9.00;;;3.58;;
28988;SDS011;16089;59.952;10.818;2023-06-14T08:06:16;9.38;;;4.47;;
28988;SDS011;16089;59.952;10.818;2023-06-14T08:08:43;8.05;;;3.97;;
28988;SDS011;16089;59.952;10.818;2023-06-14T08:11:09;9.02;;;4.10;;
28988;SDS011;16089;59.952;10.818;2023-06-14T08:13:35;12.05;;;4.15;;
28988;SDS011;16089;59.952;10.818;2023-06-14T08:16:03;12.25;;;4.15;;
28988;SDS011;16089;59.952;10.818;2023-06-14T08:18:30;8.85;;;4.50;;
28988;SDS011;16089;59.952;10.818;2023-06-14T08:20:57;16.52;;;4.72;;
28988;SDS011;16089;59.952;10.818;2023-06-14T08:23:23;9.15;;;4.00;;
28988;SDS011;16089;59.952;10.818;2023-06-14T08:25:49;6.75;;;4.15;;
28988;SDS011;16089;59.952;10.818;2023-06-14T08:28:16;8.40;;;4.43;;
28988;SDS011;16089;59.952;10.818;2023-06-14T08:30:42;14.90;;;4.70;;
28988;SDS011;16089;59.952;10.818;2023-06-14T08:33:10;10.63;;;4.10;;
28988;SDS011;16089;59.952;10.818;2023-06-14T08:35:36;11.75;;;4.55;;
28988;SDS011;16089;59.952;10.818;2023-06-14T08:38:04;11.52;;;4.88;;
28988;SDS011;16089;59.952;10.818;2023-06-14T08:40:30;12.55;;;4.40;;
28988;SDS011;16089;59.952;10.818;2023-06-14T08:42:57;8.07;;;4.30;;
28988;SDS011;16089;59.952;10.818;2023-06-14T08:45:24;11.05;;;4.32;;
28988;SDS011;16089;59.952;10.818;2023-06-14T08:47:51;10.10;;;4.80;;
28988;SDS011;16089;59.952;10.818;2023-06-14T08:50:24;10.98;;;4.75;;
28988;SDS011;16089;59.952;10.818;2023-06-14T08:52:52;11.52;;;4.20;;
28988;SDS011;16089;59.952;10.818;2023-06-14T08:55:19;10.73;;;4.65;;
28988;SDS011;16089;59.952;10.818;2023-06-14T08:57:46;7.47;;;4.20;;
28988;SDS011;16089;59.952;10.818;2023-06-14T09:00:13;11.20;;;5.03;;
28988;SDS011;16089;59.952;10.818;2023-06-14T09:02:40;10.02;;;4.28;;
28988;SDS011;16089;59.952;10.818;2023-06-14T09:05:08;11.30;;;4.63;;
28988;SDS011;16089;59.952;10.818;2023-06-14T09:07:36;8.60;;;4.25;;
28988;SDS011;16089;59.952;10.818;2023-06-14T09:10:07;10.35;;;4.30;;
28988;SDS011;16089;59.952;10.818;2023-06-14T09:12:33;13.65;;;4.65;;
28988;SDS011;16089;59.952;10.818;2023-06-14T09:15:00;9.65;;;4.63;;
28988;SDS011;16089;59.952;10.818;2023-06-14T09:17:31;9.13;;;4.82;;
28988;SDS011;16089;59.952;10.818;2023-06-14T09:19:58;14.50;;;4.38;;
28988;SDS011;16089;59.952;10.818;2023-06-14T09:22:25;9.18;;;4.47;;
28988;SDS011;16089;59.952;10.818;2023-06-14T09:24:52;14.20;;;4.93;;
28988;SDS011;16089;59.952;10.818;2023-06-14T09:27:19;8.32;;;4.28;;
28988;SDS011;16089;59.952;10.818;2023-06-14T09:29:46;7.90;;;3.83;;
28988;SDS011;16089;59.952;10.818;2023-06-14T09:32:12;7.75;;;4.03;;
28988;SDS011;16089;59.952;10.818;2023-06-14T09:34:38;10.63;;;3.75;;
28988;SDS011;16089;59.952;10.818;2023-06-14T09:37:05;9.40;;;4.35;;
28988;SDS011;16089;59.952;10.818;2023-06-14T09:39:32;10.68;;;4.55;;
28988;SDS011;16089;59.952;10.818;2023-06-14T09:41:59;9.35;;;5.25;;
28988;SDS011;16089;59.952;10.818;2023-06-14T09:44:26;6.10;;;3.80;;
28988;SDS011;16089;59.952;10.818;2023-06-14T09:46:55;11.68;;;3.85;;
28988;SDS011;16089;59.952;10.818;2023-06-14T09:49:22;8.82;;;3.90;;
28988;SDS011;16089;59.952;10.818;2023-06-14T09:51:50;8.88;;;3.33;;
28988;SDS011;16089;59.952;10.818;2023-06-14T09:54:20;10.25;;;3.90;;
28988;SDS011;16089;59.952;10.818;2023-06-14T09:56:47;7.32;;;3.65;;
28988;SDS011;16089;59.952;10.818;2023-06-14T09:59:16;8.13;;;3.90;;
28988;SDS011;16089;59.952;10.818;2023-06-14T10:01:45;9.57;;;3.75;;
28988;SDS011;16089;59.952;10.818;2023-06-14T10:04:12;7.03;;;3.80;;
28988;SDS011;16089;59.952;10.818;2023-06-14T10:06:40;6.47;;;3.45;;
28988;SDS011;16089;59.952;10.818;2023-06-14T10:09:07;9.70;;;3.83;;
28988;SDS011;16089;59.952;10.818;2023-06-14T10:11:34;8.07;;;3.75;;
28988;SDS011;16089;59.952;10.818;2023-06-14T10:14:01;6.00;;;3.60;;
28988;SDS011;16089;59.952;10.818;2023-06-14T10:16:31;6.07;;;3.15;;
28988;SDS011;16089;59.952;10.818;2023-06-14T10:19:00;10.13;;;3.90;;
28988;SDS011;16089;59.952;10.818;2023-06-14T10:21:32;8.10;;;3.33;;
28988;SDS011;16089;59.952;10.818;2023-06-14T10:24:01;9.15;;;3.80;;
28988;SDS011;16089;59.952;10.818;2023-06-14T10:26:29;9.32;;;4.25;;
28988;SDS011;16089;59.952;10.818;2023-06-14T10:28:56;8.05;;;4.13;;
28988;SDS011;16089;59.952;10.818;2023-06-14T10:31:23;9.75;;;4.32;;
28988;SDS011;16089;59.952;10.818;2023-06-14T10:33:56;7.95;;;4.00;;
28988;SDS011;16089;59.952;10.818;2023-06-14T10:36:26;8.57;;;3.50;;
28988;SDS011;16089;59.952;10.818;2023-06-14T10:41:35;8.43;;;4.00;;
28988;SDS011;16089;59.952;10.818;2023-06-14T10:46:52;6.00;;;3.10;;
28988;SDS011;16089;59.952;10.818;2023-06-14T10:49:20;6.90;;;3.60;;
28988;SDS011;16089;59.952;10.818;2023-06-14T10:51:49;9.20;;;3.60;;
28988;SDS011;16089;59.952;10.818;2023-06-14T10:54:17;6.13;;;3.40;;
28988;SDS011;16089;59.952;10.818;2023-06-14T10:56:45;5.57;;;3.17;;
28988;SDS011;16089;59.952;10.818;2023-06-14T10:59:12;10.60;;;3.28;;
28988;SDS011;16089;59.952;10.818;2023-06-14T11:01:40;6.38;;;3.03;;
28988;SDS011;16089;59.952;10.818;2023-06-14T11:04:08;13.13;;;4.10;;
28988;SDS011;16089;59.952;10.818;2023-06-14T11:06:42;7.43;;;3.20;;
28988;SDS011;16089;59.952;10.818;2023-06-14T11:09:17;8.05;;;3.55;;
28988;SDS011;16089;59.952;10.818;2023-06-14T11:11:46;8.90;;;3.58;;
28988;SDS011;16089;59.952;10.818;2023-06-14T11:14:13;8.48;;;3.60;;
28988;SDS011;16089;59.952;10.818;2023-06-14T11:16:40;8.07;;;3.42;;
28988;SDS011;16089;59.952;10.818;2023-06-14T11:19:06;7.10;;;3.47;;
28988;SDS011;16089;59.952;10.818;2023-06-14T11:21:32;10.02;;;3.50;;
28988;SDS011;16089;59.952;10.818;2023-06-14T11:24:00;5.50;;;3.10;;
28988;SDS011;16089;59.952;10.818;2023-06-14T11:26:27;11.27;;;3.60;;
28988;SDS011;16089;59.952;10.818;2023-06-14T11:28:56;6.20;;;3.60;;
28988;SDS011;16089;59.952;10.818;2023-06-14T11:31:23;10.38;;;3.65;;
28988;SDS011;16089;59.952;10.818;2023-06-14T11:33:50;12.30;;;3.83;;
28988;SDS011;16089;59.952;10.818;2023-06-14T11:36:17;6.78;;;3.47;;
28988;SDS011;16089;59.952;10.818;2023-06-14T11:38:43;6.38;;;3.65;;
28988;SDS011;16089;59.952;10.818;2023-06-14T11:41:11;8.43;;;3.30;;
28988;SDS011;16089;59.952;10.818;2023-06-14T11:43:37;9.00;;;3.75;;
28988;SDS011;16089;59.952;10.818;2023-06-14T11:46:03;7.65;;;3.55;;
28988;SDS011;16089;59.952;10.818;2023-06-14T11:48:36;8.10;;;3.35;;
28988;SDS011;16089;59.952;10.818;2023-06-14T11:51:03;9.30;;;3.88;;
28988;SDS011;16089;59.952;10.818;2023-06-14T11:53:29;6.28;;;3.45;;
28988;SDS011;16089;59.952;10.818;2023-06-14T11:55:55;5.57;;;3.40;;
28988;SDS011;16089;59.952;10.818;2023-06-14T11:58:23;6.93;;;3.33;;
28988;SDS011;16089;59.952;10.818;2023-06-14T12:00:50;6.35;;;3.20;;
28988;SDS011;16089;59.952;10.818;2023-06-14T12:03:16;7.28;;;3.55;;
28988;SDS011;16089;59.952;10.818;2023-06-14T12:05:42;6.80;;;3.33;;
28988;SDS011;16089;59.952;10.818;2023-06-14T12:08:09;8.10;;;3.50;;
28988;SDS011;16089;59.952;10.818;2023-06-14T12:10:41;6.85;;;3.35;;
28988;SDS011;16089;59.952;10.818;2023-06-14T12:13:09;9.07;;;3.15;;
28988;SDS011;16089;59.952;10.818;2023-06-14T12:15:37;5.88;;;3.60;;
28988;SDS011;16089;59.952;10.818;2023-06-14T12:18:05;7.05;;;3.42;;
28988;SDS011;16089;59.952;10.818;2023-06-14T12:20:32;6.70;;;3.38;;
28988;SDS011;16089;59.952;10.818;2023-06-14T12:22:59;6.68;;;3.75;;
28988;SDS011;16089;59.952;10.818;2023-06-14T12:25:27;7.28;;;3.38;;
28988;SDS011;16089;59.952;10.818;2023-06-14T12:27:53;7.13;;;3.70;;
28988;SDS011;16089;59.952;10.818;2023-06-14T12:30:19;9.55;;;3.80;;
28988;SDS011;16089;59.952;10.818;2023-06-14T12:32:47;6.60;;;3.30;;
28988;SDS011;16089;59.952;10.818;2023-06-14T12:35:16;8.13;;;3.95;;
28988;SDS011;16089;59.952;10.818;2023-06-14T12:37:42;5.88;;;3.38;;
28988;SDS011;16089;59.952;10.818;2023-06-14T12:40:09;6.18;;;3.47;;
28988;SDS011;16089;59.952;10.818;2023-06-14T12:42:36;6.80;;;3.55;;
28988;SDS011;16089;59.952;10.818;2023-06-14T12:45:03;6.82;;;3.25;;
28988;SDS011;16089;59.952;10.818;2023-06-14T12:47:29;9.75;;;3.53;;
28988;SDS011;16089;59.952;10.818;2023-06-14T12:49:57;11.43;;;3.70;;
28988;SDS011;16089;59.952;10.818;2023-06-14T12:52:23;7.07;;;3.58;;
28988;SDS011;16089;59.952;10.818;2023-06-14T12:54:49;7.20;;;4.05;;
28988;SDS011;16089;59.952;10.818;2023-06-14T12:57:16;7.13;;;3.83;;
28988;SDS011;16089;59.952;10.818;2023-06-14T12:59:42;6.18;;;3.42;;
28988;SDS011;16089;59.952;10.818;2023-06-14T13:02:12;6.38;;;3.50;;
28988;SDS011;16089;59.952;10.818;2023-06-14T13:04:38;7.07;;;3.63;;
28988;SDS011;16089;59.952;10.818;2023-06-14T13:07:06;5.90;;;3.80;;
28988;SDS011;16089;59.952;10.818;2023-06-14T13:09:32;6.53;;;3.35;;
28988;SDS011;16089;59.952;10.818;2023-06-14T13:11:59;5.63;;;3.42;;
28988;SDS011;16089;59.952;10.818;2023-06-14T13:14:25;5.85;;;3.80;;
28988;SDS011;16089;59.952;10.818;2023-06-14T13:16:52;11.82;;;3.90;;
28988;SDS011;16089;59.952;10.818;2023-06-14T13:19:18;6.57;;;3.90;;
28988;SDS011;16089;59.952;10.818;2023-06-14T13:21:44;5.88;;;4.10;;
28988;SDS011;16089;59.952;10.818;2023-06-14T13:24:12;6.18;;;3.58;;
28988;SDS011;16089;59.952;10.818;2023-06-14T13:26:38;11.82;;;3.58;;
28988;SDS011;16089;59.952;10.818;2023-06-14T13:29:05;8.00;;;4.07;;
28988;SDS011;16089;59.952;10.818;2023-06-14T13:31:31;10.90;;;3.80;;
28988;SDS011;16089;59.952;10.818;2023-06-14T13:33:58;6.70;;;3.40;;
28988;SDS011;16089;59.952;10.818;2023-06-14T13:36:24;7.93;;;3.35;;
28988;SDS011;16089;59.952;10.818;2023-06-14T13:38:51;7.75;;;3.90;;
28988;SDS011;16089;59.952;10.818;2023-06-14T13:41:19;7.47;;;3.60;;
28988;SDS011;16089;59.952;10.818;2023-06-14T13:43:45;6.07;;;3.47;;
28988;SDS011;16089;59.952;10.818;2023-06-14T13:46:12;9.57;;;3.72;;
28988;SDS011;16089;59.952;10.818;2023-06-14T13:48:38;5.40;;;3.28;;
28988;SDS011;16089;59.952;10.818;2023-06-14T13:51:04;6.57;;;3.55;;
28988;SDS011;16089;59.952;10.818;2023-06-14T13:53:31;7.53;;;3.60;;
28988;SDS011;16089;59.952;10.818;2023-06-14T13:55:57;5.70;;;3.70;;
28988;SDS011;16089;59.952;10.818;2023-06-14T13:58:25;9.95;;;3.40;;
28988;SDS011;16089;59.952;10.818;2023-06-14T14:00:51;10.35;;;3.55;;
28988;SDS011;16089;59.952;10.818;2023-06-14T14:03:17;6.80;;;3.10;;
28988;SDS011;16089;59.952;10.818;2023-06-14T14:05:44;6.90;;;3.40;;
28988;SDS011;16089;59.952;10.818;2023-06-14T14:08:11;7.35;;;3.92;;
28988;SDS011;16089;59.952;10.818;2023-06-14T14:10:37;7.88;;;4.10;;
28988;SDS011;16089;59.952;10.818;2023-06-14T14:13:04;7.60;;;4.22;;
28988;SDS011;16089;59.952;10.818;2023-06-14T14:15:32;15.55;;;3.50;;
28988;SDS011;16089;59.952;10.818;2023-06-14T14:17:59;9.18;;;3.42;;
28988;SDS011;16089;59.952;10.818;2023-06-14T14:20:26;9.40;;;3.60;;
28988;SDS011;16089;59.952;10.818;2023-06-14T14:22:52;5.82;;;3.50;;
28988;SDS011;16089;59.952;10.818;2023-06-14T14:25:18;7.47;;;4.05;;
28988;SDS011;16089;59.952;10.818;2023-06-14T14:27:47;9.88;;;5.40;;
28988;SDS011;16089;59.952;10.818;2023-06-14T14:30:14;7.25;;;3.60;;
28988;SDS011;16089;59.952;10.818;2023-06-14T14:32:43;6.38;;;3.38;;